sensor_id;sensor_type;location;lat;lon;timestamp;P1;durP1;ratioP1;P2;durP2;ratioP2
78989;SDS011;68390;52.130;21.218;2024-02-26T07:29:14;34.47;;;18.60;;
78989;SDS011;68390;52.130;21.218;2024-02-26T07:31:41;31.40;;;18.58;;
78989;SDS011;68390;52.130;21.218;2024-02-26T07:34:06;45.65;;;18.98;;
78989;SDS011;68390;52.130;21.218;2024-02-26T07:36:31;32.00;;;17.98;;
78989;SDS011;68390;52.130;21.218;2024-02-26T07:38:57;31.30;;;18.00;;
78989;SDS011;68390;52.130;21.218;2024-02-26T07:41:22;31.50;;;18.42;;
78989;SDS011;68390;52.130;21.218;2024-02-26T07:43:47;30.80;;;18.00;;
78989;SDS011;68390;52.130;21.218;2024-02-26T07:46:13;30.13;;;17.17;;
78989;SDS011;68390;52.130;21.218;2024-02-26T07:48:39;32.22;;;16.90;;
78989;SDS011;68390;52.130;21.218;2024-02-26T07:51:04;24.60;;;14.48;;
78989;SDS011;68390;52.130;21.218;2024-02-26T07:53:30;28.40;;;14.13;;
78989;SDS011;68390;52.130;21.218;2024-02-26T07:55:56;25.27;;;15.13;;
78989;SDS011;68390;52.130;21.218;2024-02-26T07:58:21;23.23;;;14.18;;
78989;SDS011;68390;52.130;21.218;2024-02-26T08:00:49;23.02;;;13.38;;
78989;SDS011;68390;52.130;21.218;2024-02-26T08:03:14;24.25;;;13.73;;
78989;SDS011;68390;52.130;21.218;2024-02-26T08:05:41;23.33;;;13.70;;
78989;SDS011;68390;52.130;21.218;2024-02-26T08:08:08;22.65;;;13.35;;
78989;SDS011;68390;52.130;21.218;2024-02-26T08:10:33;22.52;;;13.00;;
78989;SDS011;68390;52.130;21.218;2024-02-26T08:12:59;24.05;;;14.00;;
78989;SDS011;68390;52.130;21.218;2024-02-26T08:15:33;23.58;;;13.00;;
78989;SDS011;68390;52.130;21.218;2024-02-26T08:17:59;18.73;;;12.82;;
78989;SDS011;68390;52.130;21.218;2024-02-26T08:20:27;18.80;;;12.82;;
78989;SDS011;68390;52.130;21.218;2024-02-26T08:22:53;20.98;;;12.65;;
78989;SDS011;68390;52.130;21.218;2024-02-26T08:25:19;19.33;;;12.02;;
78989;SDS011;68390;52.130;21.218;2024-02-26T08:27:44;23.38;;;13.45;;
78989;SDS011;68390;52.130;21.218;2024-02-26T08:30:10;19.85;;;12.50;;
78989;SDS011;68390;52.130;21.218;2024-02-26T08:32:38;21.13;;;12.70;;
78989;SDS011;68390;52.130;21.218;2024-02-26T08:35:04;20.52;;;12.45;;
78989;SDS011;68390;52.130;21.218;2024-02-26T08:37:30;20.67;;;13.45;;
78989;SDS011;68390;52.130;21.218;2024-02-26T08:39:55;25.33;;;13.27;;
78989;SDS011;68390;52.130;21.218;2024-02-26T08:42:21;21.30;;;12.82;;
78989;SDS011;68390;52.130;21.218;2024-02-26T08:44:48;20.70;;;13.25;;
78989;SDS011;68390;52.130;21.218;2024-02-26T08:47:13;20.35;;;12.65;;
78989;SDS011;68390;52.130;21.218;2024-02-26T08:49:42;19.45;;;12.48;;
78989;SDS011;68390;52.130;21.218;2024-02-26T08:52:08;20.13;;;12.68;;
78989;SDS011;68390;52.130;21.218;2024-02-26T08:54:34;21.20;;;12.70;;
78989;SDS011;68390;52.130;21.218;2024-02-26T08:56:59;23.25;;;12.95;;
78989;SDS011;68390;52.130;21.218;2024-02-26T08:59:24;20.83;;;12.95;;
78989;SDS011;68390;52.130;21.218;2024-02-26T09:01:50;21.48;;;12.98;;
78989;SDS011;68390;52.130;21.218;2024-02-26T09:04:15;18.67;;;12.55;;
78989;SDS011;68390;52.130;21.218;2024-02-26T09:06:41;19.77;;;12.57;;
78989;SDS011;68390;52.130;21.218;2024-02-26T09:09:06;20.75;;;12.13;;
78989;SDS011;68390;52.130;21.218;2024-02-26T09:11:31;19.48;;;12.88;;
78989;SDS011;68390;52.130;21.218;2024-02-26T09:13:57;23.95;;;13.50;;
78989;SDS011;68390;52.130;21.218;2024-02-26T09:16:22;20.33;;;12.82;;
78989;SDS011;68390;52.130;21.218;2024-02-26T09:18:47;19.05;;;12.18;;
78989;SDS011;68390;52.130;21.218;2024-02-26T09:21:13;19.30;;;12.90;;
78989;SDS011;68390;52.130;21.218;2024-02-26T09:23:38;21.92;;;13.27;;
78989;SDS011;68390;52.130;21.218;2024-02-26T09:26:05;17.02;;;11.55;;
78989;SDS011;68390;52.130;21.218;2024-02-26T09:28:31;18.60;;;12.32;;
78989;SDS011;68390;52.130;21.218;2024-02-26T09:31:02;24.40;;;14.07;;
78989;SDS011;68390;52.130;21.218;2024-02-26T09:33:29;21.98;;;12.75;;
78989;SDS011;68390;52.130;21.218;2024-02-26T09:35:54;24.13;;;14.57;;
78989;SDS011;68390;52.130;21.218;2024-02-26T09:38:19;19.00;;;11.75;;
78989;SDS011;68390;52.130;21.218;2024-02-26T09:40:45;19.50;;;12.32;;
78989;SDS011;68390;52.130;21.218;2024-02-26T09:43:10;17.85;;;12.50;;
78989;SDS011;68390;52.130;21.218;2024-02-26T09:45:40;15.73;;;11.95;;
78989;SDS011;68390;52.130;21.218;2024-02-26T09:48:08;16.40;;;11.57;;
78989;SDS011;68390;52.130;21.218;2024-02-26T09:50:35;19.10;;;11.98;;
78989;SDS011;68390;52.130;21.218;2024-02-26T09:53:01;16.23;;;11.63;;
78989;SDS011;68390;52.130;21.218;2024-02-26T09:55:27;17.50;;;11.52;;
78989;SDS011;68390;52.130;21.218;2024-02-26T09:57:53;16.92;;;11.07;;
78989;SDS011;68390;52.130;21.218;2024-02-26T10:00:21;18.65;;;11.02;;
78989;SDS011;68390;52.130;21.218;2024-02-26T10:02:47;14.55;;;10.63;;
78989;SDS011;68390;52.130;21.218;2024-02-26T10:05:17;16.05;;;11.05;;
78989;SDS011;68390;52.130;21.218;2024-02-26T10:07:44;17.25;;;10.55;;
78989;SDS011;68390;52.130;21.218;2024-02-26T10:10:10;15.15;;;10.50;;
78989;SDS011;68390;52.130;21.218;2024-02-26T10:12:35;13.30;;;10.20;;
78989;SDS011;68390;52.130;21.218;2024-02-26T10:15:01;15.38;;;9.85;;
78989;SDS011;68390;52.130;21.218;2024-02-26T10:17:26;14.10;;;10.20;;
78989;SDS011;68390;52.130;21.218;2024-02-26T10:19:53;13.55;;;9.30;;
78989;SDS011;68390;52.130;21.218;2024-02-26T10:22:21;13.98;;;9.75;;
78989;SDS011;68390;52.130;21.218;2024-02-26T10:24:48;15.02;;;9.32;;
78989;SDS011;68390;52.130;21.218;2024-02-26T10:27:13;15.90;;;9.82;;
78989;SDS011;68390;52.130;21.218;2024-02-26T10:29:39;15.05;;;9.73;;
78989;SDS011;68390;52.130;21.218;2024-02-26T10:32:06;13.25;;;9.48;;
78989;SDS011;68390;52.130;21.218;2024-02-26T10:34:32;13.00;;;8.88;;
78989;SDS011;68390;52.130;21.218;2024-02-26T10:37:01;16.83;;;11.70;;
78989;SDS011;68390;52.130;21.218;2024-02-26T10:39:26;13.55;;;9.73;;
78989;SDS011;68390;52.130;21.218;2024-02-26T10:41:52;15.73;;;9.85;;
78989;SDS011;68390;52.130;21.218;2024-02-26T10:44:17;15.40;;;8.90;;
78989;SDS011;68390;52.130;21.218;2024-02-26T10:46:44;11.77;;;8.85;;
78989;SDS011;68390;52.130;21.218;2024-02-26T10:49:16;12.15;;;8.73;;
78989;SDS011;68390;52.130;21.218;2024-02-26T10:51:45;10.68;;;7.75;;
78989;SDS011;68390;52.130;21.218;2024-02-26T10:54:15;12.48;;;7.88;;
78989;SDS011;68390;52.130;21.218;2024-02-26T10:56:41;11.60;;;8.75;;
78989;SDS011;68390;52.130;21.218;2024-02-26T10:59:09;11.73;;;8.27;;
78989;SDS011;68390;52.130;21.218;2024-02-26T11:01:35;12.43;;;8.02;;
78989;SDS011;68390;52.130;21.218;2024-02-26T11:04:03;11.10;;;8.23;;
78989;SDS011;68390;52.130;21.218;2024-02-26T11:06:29;12.20;;;7.95;;
78989;SDS011;68390;52.130;21.218;2024-02-26T11:08:54;11.90;;;8.40;;
78989;SDS011;68390;52.130;21.218;2024-02-26T11:11:21;10.65;;;7.20;;
78989;SDS011;68390;52.130;21.218;2024-02-26T11:13:48;10.93;;;7.78;;
78989;SDS011;68390;52.130;21.218;2024-02-26T11:16:19;11.52;;;6.80;;
78989;SDS011;68390;52.130;21.218;2024-02-26T11:18:46;8.82;;;6.38;;
78989;SDS011;68390;52.130;21.218;2024-02-26T11:21:16;11.73;;;8.27;;
78989;SDS011;68390;52.130;21.218;2024-02-26T11:23:43;11.63;;;8.10;;
78989;SDS011;68390;52.130;21.218;2024-02-26T11:26:10;10.45;;;7.95;;
78989;SDS011;68390;52.130;21.218;2024-02-26T11:28:37;9.50;;;7.28;;
78989;SDS011;68390;52.130;21.218;2024-02-26T11:31:03;10.57;;;6.75;;
78989;SDS011;68390;52.130;21.218;2024-02-26T11:33:30;6.35;;;5.28;;
78989;SDS011;68390;52.130;21.218;2024-02-26T11:35:56;7.13;;;4.72;;
78989;SDS011;68390;52.130;21.218;2024-02-26T11:38:24;5.78;;;4.03;;
78989;SDS011;68390;52.130;21.218;2024-02-26T11:40:51;6.15;;;4.40;;
78989;SDS011;68390;52.130;21.218;2024-02-26T11:43:18;5.28;;;4.20;;
78989;SDS011;68390;52.130;21.218;2024-02-26T11:45:48;9.88;;;4.20;;
78989;SDS011;68390;52.130;21.218;2024-02-26T11:48:19;7.38;;;4.57;;
78989;SDS011;68390;52.130;21.218;2024-02-26T11:50:47;6.57;;;4.60;;
78989;SDS011;68390;52.130;21.218;2024-02-26T11:55:45;5.75;;;4.00;;
78989;SDS011;68390;52.130;21.218;2024-02-26T11:58:10;5.13;;;3.70;;
78989;SDS011;68390;52.130;21.218;2024-02-26T12:00:35;5.05;;;3.40;;
78989;SDS011;68390;52.130;21.218;2024-02-26T12:03:01;5.25;;;3.75;;
78989;SDS011;68390;52.130;21.218;2024-02-26T12:08:04;4.38;;;2.95;;
78989;SDS011;68390;52.130;21.218;2024-02-26T12:10:32;5.45;;;3.70;;
78989;SDS011;68390;52.130;21.218;2024-02-26T12:15:39;4.70;;;3.10;;
78989;SDS011;68390;52.130;21.218;2024-02-26T12:18:05;4.80;;;3.10;;
78989;SDS011;68390;52.130;21.218;2024-02-26T12:20:33;4.25;;;2.85;;
78989;SDS011;68390;52.130;21.218;2024-02-26T12:23:00;5.93;;;3.45;;
78989;SDS011;68390;52.130;21.218;2024-02-26T12:25:27;5.38;;;3.20;;
78989;SDS011;68390;52.130;21.218;2024-02-26T12:27:54;4.60;;;3.00;;
78989;SDS011;68390;52.130;21.218;2024-02-26T12:30:20;4.30;;;2.90;;
78989;SDS011;68390;52.130;21.218;2024-02-26T12:32:47;4.10;;;3.10;;
78989;SDS011;68390;52.130;21.218;2024-02-26T12:35:13;4.18;;;3.10;;
78989;SDS011;68390;52.130;21.218;2024-02-26T12:37:41;3.63;;;2.88;;
78989;SDS011;68390;52.130;21.218;2024-02-26T12:40:10;5.80;;;3.60;;
78989;SDS011;68390;52.130;21.218;2024-02-26T12:42:38;4.53;;;3.10;;
78989;SDS011;68390;52.130;21.218;2024-02-26T12:45:11;4.78;;;3.75;;
78989;SDS011;68390;52.130;21.218;2024-02-26T12:50:03;5.00;;;3.40;;
78989;SDS011;68390;52.130;21.218;2024-02-26T12:52:30;3.83;;;3.00;;
78989;SDS011;68390;52.130;21.218;2024-02-26T12:54:57;4.45;;;2.80;;
78989;SDS011;68390;52.130;21.218;2024-02-26T12:57:23;3.47;;;2.90;;
78989;SDS011;68390;52.130;21.218;2024-02-26T12:59:49;3.63;;;2.88;;
78989;SDS011;68390;52.130;21.218;2024-02-26T13:02:14;4.45;;;3.10;;
78989;SDS011;68390;52.130;21.218;2024-02-26T13:04:40;3.83;;;3.17;;
78989;SDS011;68390;52.130;21.218;2024-02-26T13:07:06;4.38;;;3.28;;
78989;SDS011;68390;52.130;21.218;2024-02-26T13:09:35;4.55;;;3.55;;
78989;SDS011;68390;52.130;21.218;2024-02-26T13:12:03;7.07;;;3.15;;
78989;SDS011;68390;52.130;21.218;2024-02-26T13:14:29;6.22;;;3.28;;
78989;SDS011;68390;52.130;21.218;2024-02-26T13:17:00;6.13;;;3.22;;
78989;SDS011;68390;52.130;21.218;2024-02-26T13:19:26;4.03;;;2.85;;
78989;SDS011;68390;52.130;21.218;2024-02-26T13:21:53;6.28;;;3.10;;
78989;SDS011;68390;52.130;21.218;2024-02-26T13:24:19;5.25;;;3.25;;
78989;SDS011;68390;52.130;21.218;2024-02-26T13:26:45;5.03;;;3.38;;
78989;SDS011;68390;52.130;21.218;2024-02-26T13:29:17;4.45;;;2.90;;
78989;SDS011;68390;52.130;21.218;2024-02-26T13:31:43;6.00;;;3.28;;
78989;SDS011;68390;52.130;21.218;2024-02-26T13:34:09;4.65;;;3.05;;
78989;SDS011;68390;52.130;21.218;2024-02-26T13:36:34;6.45;;;3.05;;
78989;SDS011;68390;52.130;21.218;2024-02-26T13:39:00;5.28;;;3.15;;
78989;SDS011;68390;52.130;21.218;2024-02-26T13:41:26;4.15;;;2.88;;
78989;SDS011;68390;52.130;21.218;2024-02-26T13:43:52;6.53;;;3.45;;
78989;SDS011;68390;52.130;21.218;2024-02-26T13:46:18;3.33;;;2.58;;
78989;SDS011;68390;52.130;21.218;2024-02-26T13:48:43;3.97;;;2.65;;
78989;SDS011;68390;52.130;21.218;2024-02-26T13:51:09;4.43;;;3.05;;
78989;SDS011;68390;52.130;21.218;2024-02-26T13:53:34;5.55;;;3.28;;
78989;SDS011;68390;52.130;21.218;2024-02-26T13:55:59;4.22;;;3.08;;
78989;SDS011;68390;52.130;21.218;2024-02-26T13:58:26;5.60;;;3.10;;
78989;SDS011;68390;52.130;21.218;2024-02-26T14:00:55;4.95;;;3.13;;
78989;SDS011;68390;52.130;21.218;2024-02-26T14:05:46;5.93;;;2.97;;
78989;SDS011;68390;52.130;21.218;2024-02-26T14:08:12;4.85;;;3.22;;
78989;SDS011;68390;52.130;21.218;2024-02-26T14:10:38;5.80;;;3.17;;
78989;SDS011;68390;52.130;21.218;2024-02-26T14:13:04;4.72;;;2.80;;
78989;SDS011;68390;52.130;21.218;2024-02-26T14:15:29;5.30;;;3.13;;
78989;SDS011;68390;52.130;21.218;2024-02-26T14:17:55;4.57;;;3.00;;
78989;SDS011;68390;52.130;21.218;2024-02-26T14:20:24;3.65;;;2.80;;
78989;SDS011;68390;52.130;21.218;2024-02-26T14:22:50;3.95;;;3.05;;
78989;SDS011;68390;52.130;21.218;2024-02-26T14:25:18;4.88;;;3.38;;
78989;SDS011;68390;52.130;21.218;2024-02-26T14:27:45;4.45;;;3.10;;
78989;SDS011;68390;52.130;21.218;2024-02-26T14:30:11;4.32;;;2.90;;
78989;SDS011;68390;52.130;21.218;2024-02-26T14:32:37;5.30;;;3.45;;
78989;SDS011;68390;52.130;21.218;2024-02-26T14:35:03;5.13;;;3.40;;
78989;SDS011;68390;52.130;21.218;2024-02-26T14:37:31;4.43;;;2.80;;
78989;SDS011;68390;52.130;21.218;2024-02-26T14:39:56;5.30;;;3.03;;
78989;SDS011;68390;52.130;21.218;2024-02-26T14:42:22;4.97;;;2.70;;
78989;SDS011;68390;52.130;21.218;2024-02-26T14:44:49;4.32;;;2.75;;
78989;SDS011;68390;52.130;21.218;2024-02-26T14:47:16;5.88;;;3.22;;
78989;SDS011;68390;52.130;21.218;2024-02-26T14:49:41;4.90;;;3.10;;
78989;SDS011;68390;52.130;21.218;2024-02-26T14:52:07;5.30;;;3.20;;
78989;SDS011;68390;52.130;21.218;2024-02-26T14:54:33;5.75;;;3.55;;
78989;SDS011;68390;52.130;21.218;2024-02-26T14:57:02;5.05;;;3.50;;
78989;SDS011;68390;52.130;21.218;2024-02-26T14:59:29;4.80;;;3.00;;
78989;SDS011;68390;52.130;21.218;2024-02-26T15:01:56;5.82;;;3.72;;
78989;SDS011;68390;52.130;21.218;2024-02-26T15:04:22;6.63;;;3.85;;
78989;SDS011;68390;52.130;21.218;2024-02-26T15:06:49;8.10;;;3.97;;
78989;SDS011;68390;52.130;21.218;2024-02-26T15:09:14;6.63;;;3.78;;
78989;SDS011;68390;52.130;21.218;2024-02-26T15:11:39;5.38;;;3.47;;
78989;SDS011;68390;52.130;21.218;2024-02-26T15:14:05;6.20;;;3.88;;
78989;SDS011;68390;52.130;21.218;2024-02-26T15:16:32;7.10;;;3.75;;
78989;SDS011;68390;52.130;21.218;2024-02-26T15:18:58;7.40;;;4.53;;
78989;SDS011;68390;52.130;21.218;2024-02-26T15:21:23;8.60;;;4.68;;
78989;SDS011;68390;52.130;21.218;2024-02-26T15:23:49;6.88;;;4.45;;
78989;SDS011;68390;52.130;21.218;2024-02-26T15:26:15;7.85;;;5.03;;
78989;SDS011;68390;52.130;21.218;2024-02-26T15:28:42;8.18;;;4.35;;
78989;SDS011;68390;52.130;21.218;2024-02-26T15:31:07;7.68;;;4.50;;
78989;SDS011;68390;52.130;21.218;2024-02-26T15:33:33;8.30;;;5.30;;
78989;SDS011;68390;52.130;21.218;2024-02-26T15:35:58;9.18;;;5.28;;
78989;SDS011;68390;52.130;21.218;2024-02-26T15:38:24;8.38;;;5.10;;
78989;SDS011;68390;52.130;21.218;2024-02-26T15:40:49;9.82;;;5.50;;
78989;SDS011;68390;52.130;21.218;2024-02-26T15:43:15;10.68;;;5.68;;
78989;SDS011;68390;52.130;21.218;2024-02-26T15:45:41;10.50;;;6.03;;
78989;SDS011;68390;52.130;21.218;2024-02-26T15:48:06;11.35;;;6.30;;
78989;SDS011;68390;52.130;21.218;2024-02-26T15:50:32;9.98;;;6.32;;
78989;SDS011;68390;52.130;21.218;2024-02-26T15:52:57;12.75;;;6.20;;
78989;SDS011;68390;52.130;21.218;2024-02-26T15:55:23;11.32;;;6.45;;
78989;SDS011;68390;52.130;21.218;2024-02-26T15:57:49;14.20;;;7.15;;
78989;SDS011;68390;52.130;21.218;2024-02-26T16:00:14;15.32;;;7.30;;
78989;SDS011;68390;52.130;21.218;2024-02-26T16:02:40;13.35;;;7.97;;
78989;SDS011;68390;52.130;21.218;2024-02-26T16:05:07;15.75;;;8.15;;
78989;SDS011;68390;52.130;21.218;2024-02-26T16:07:38;15.95;;;8.23;;
78989;SDS011;68390;52.130;21.218;2024-02-26T16:12:38;12.90;;;8.05;;
78989;SDS011;68390;52.130;21.218;2024-02-26T16:15:07;14.35;;;8.55;;
78989;SDS011;68390;52.130;21.218;2024-02-26T16:17:35;19.65;;;9.90;;
78989;SDS011;68390;52.130;21.218;2024-02-26T16:20:05;14.20;;;9.00;;
78989;SDS011;68390;52.130;21.218;2024-02-26T16:22:33;20.80;;;11.90;;
78989;SDS011;68390;52.130;21.218;2024-02-26T16:25:01;25.17;;;14.07;;
78989;SDS011;68390;52.130;21.218;2024-02-26T16:27:28;16.23;;;10.02;;
78989;SDS011;68390;52.130;21.218;2024-02-26T16:29:54;18.50;;;10.30;;
78989;SDS011;68390;52.130;21.218;2024-02-26T16:32:20;15.77;;;9.90;;
78989;SDS011;68390;52.130;21.218;2024-02-26T16:34:45;17.40;;;9.98;;
78989;SDS011;68390;52.130;21.218;2024-02-26T16:37:11;18.92;;;10.90;;
78989;SDS011;68390;52.130;21.218;2024-02-26T16:39:37;22.92;;;12.40;;
78989;SDS011;68390;52.130;21.218;2024-02-26T16:42:04;23.42;;;12.38;;
78989;SDS011;68390;52.130;21.218;2024-02-26T16:44:30;21.13;;;12.65;;
78989;SDS011;68390;52.130;21.218;2024-02-26T16:46:58;21.30;;;13.52;;
78989;SDS011;68390;52.130;21.218;2024-02-26T16:49:24;22.65;;;13.43;;
78989;SDS011;68390;52.130;21.218;2024-02-26T16:51:49;22.65;;;13.73;;
78989;SDS011;68390;52.130;21.218;2024-02-26T16:54:14;22.38;;;14.13;;
78989;SDS011;68390;52.130;21.218;2024-02-26T16:56:40;24.27;;;14.38;;
78989;SDS011;68390;52.130;21.218;2024-02-26T16:59:05;26.98;;;14.35;;
78989;SDS011;68390;52.130;21.218;2024-02-26T17:01:30;26.13;;;14.52;;
78989;SDS011;68390;52.130;21.218;2024-02-26T17:03:56;32.75;;;17.30;;
78989;SDS011;68390;52.130;21.218;2024-02-26T17:06:21;31.88;;;17.20;;
78989;SDS011;68390;52.130;21.218;2024-02-26T17:08:48;33.70;;;17.52;;
78989;SDS011;68390;52.130;21.218;2024-02-26T17:11:15;40.53;;;20.00;;
78989;SDS011;68390;52.130;21.218;2024-02-26T17:13:41;28.90;;;16.50;;
78989;SDS011;68390;52.130;21.218;2024-02-26T17:16:07;26.48;;;14.88;;
78989;SDS011;68390;52.130;21.218;2024-02-26T17:18:33;27.38;;;14.80;;
78989;SDS011;68390;52.130;21.218;2024-02-26T17:20:58;26.95;;;16.17;;
78989;SDS011;68390;52.130;21.218;2024-02-26T17:23:24;26.45;;;16.23;;
78989;SDS011;68390;52.130;21.218;2024-02-26T17:25:52;29.52;;;17.25;;
78989;SDS011;68390;52.130;21.218;2024-02-26T17:28:17;29.67;;;17.58;;
78989;SDS011;68390;52.130;21.218;2024-02-26T17:30:43;32.00;;;16.60;;
78989;SDS011;68390;52.130;21.218;2024-02-26T17:33:09;28.52;;;15.98;;
78989;SDS011;68390;52.130;21.218;2024-02-26T17:35:34;32.88;;;18.70;;
78989;SDS011;68390;52.130;21.218;2024-02-26T17:38:00;29.63;;;16.98;;
78989;SDS011;68390;52.130;21.218;2024-02-26T17:40:26;31.83;;;18.08;;
78989;SDS011;68390;52.130;21.218;2024-02-26T17:42:53;29.33;;;17.73;;
78989;SDS011;68390;52.130;21.218;2024-02-26T17:45:20;32.83;;;17.73;;
78989;SDS011;68390;52.130;21.218;2024-02-26T17:47:50;31.60;;;18.58;;
78989;SDS011;68390;52.130;21.218;2024-02-26T17:50:16;37.42;;;19.23;;
78989;SDS011;68390;52.130;21.218;2024-02-26T17:52:41;33.72;;;20.45;;
78989;SDS011;68390;52.130;21.218;2024-02-26T17:55:07;34.33;;;20.38;;
78989;SDS011;68390;52.130;21.218;2024-02-26T17:57:33;36.03;;;21.65;;
78989;SDS011;68390;52.130;21.218;2024-02-26T17:59:58;38.50;;;21.67;;
78989;SDS011;68390;52.130;21.218;2024-02-26T18:02:24;34.63;;;19.98;;
78989;SDS011;68390;52.130;21.218;2024-02-26T18:04:49;34.72;;;20.80;;
78989;SDS011;68390;52.130;21.218;2024-02-26T18:07:15;38.22;;;22.20;;
78989;SDS011;68390;52.130;21.218;2024-02-26T18:09:40;43.25;;;24.23;;
78989;SDS011;68390;52.130;21.218;2024-02-26T18:12:06;38.70;;;22.88;;
78989;SDS011;68390;52.130;21.218;2024-02-26T18:14:32;38.33;;;24.10;;
78989;SDS011;68390;52.130;21.218;2024-02-26T18:16:57;40.97;;;23.88;;
78989;SDS011;68390;52.130;21.218;2024-02-26T18:19:22;37.72;;;23.15;;
78989;SDS011;68390;52.130;21.218;2024-02-26T18:21:48;41.92;;;23.08;;
78989;SDS011;68390;52.130;21.218;2024-02-26T18:24:14;42.95;;;23.52;;
78989;SDS011;68390;52.130;21.218;2024-02-26T18:26:41;39.90;;;22.77;;
78989;SDS011;68390;52.130;21.218;2024-02-26T18:29:07;44.72;;;24.25;;
78989;SDS011;68390;52.130;21.218;2024-02-26T18:31:32;42.42;;;23.67;;
78989;SDS011;68390;52.130;21.218;2024-02-26T18:33:57;48.08;;;24.42;;
78989;SDS011;68390;52.130;21.218;2024-02-26T18:36:23;42.10;;;23.00;;
78989;SDS011;68390;52.130;21.218;2024-02-26T18:38:49;43.85;;;24.67;;
78989;SDS011;68390;52.130;21.218;2024-02-26T18:41:19;54.38;;;28.38;;
78989;SDS011;68390;52.130;21.218;2024-02-26T18:43:46;48.65;;;25.42;;
78989;SDS011;68390;52.130;21.218;2024-02-26T18:46:12;47.85;;;25.48;;
78989;SDS011;68390;52.130;21.218;2024-02-26T18:48:38;45.72;;;24.83;;
78989;SDS011;68390;52.130;21.218;2024-02-26T18:51:03;44.92;;;24.95;;
78989;SDS011;68390;52.130;21.218;2024-02-26T18:53:29;38.40;;;23.92;;
78989;SDS011;68390;52.130;21.218;2024-02-26T18:55:54;38.40;;;23.45;;
78989;SDS011;68390;52.130;21.218;2024-02-26T18:58:20;43.30;;;24.50;;
78989;SDS011;68390;52.130;21.218;2024-02-26T19:00:45;44.53;;;24.52;;
78989;SDS011;68390;52.130;21.218;2024-02-26T19:03:11;42.35;;;24.50;;
78989;SDS011;68390;52.130;21.218;2024-02-26T19:05:37;38.97;;;22.95;;
78989;SDS011;68390;52.130;21.218;2024-02-26T19:08:03;42.08;;;24.20;;
78989;SDS011;68390;52.130;21.218;2024-02-26T19:10:29;44.35;;;23.73;;
78989;SDS011;68390;52.130;21.218;2024-02-26T19:12:55;43.47;;;24.75;;
78989;SDS011;68390;52.130;21.218;2024-02-26T19:15:22;41.85;;;23.80;;
78989;SDS011;68390;52.130;21.218;2024-02-26T19:17:49;37.42;;;22.00;;
78989;SDS011;68390;52.130;21.218;2024-02-26T19:20:15;46.88;;;24.63;;
78989;SDS011;68390;52.130;21.218;2024-02-26T19:22:42;48.97;;;27.90;;
78989;SDS011;68390;52.130;21.218;2024-02-26T19:25:10;61.63;;;32.45;;
78989;SDS011;68390;52.130;21.218;2024-02-26T19:27:36;56.10;;;29.63;;
78989;SDS011;68390;52.130;21.218;2024-02-26T19:30:02;45.17;;;24.65;;
78989;SDS011;68390;52.130;21.218;2024-02-26T19:32:29;56.33;;;29.27;;
78989;SDS011;68390;52.130;21.218;2024-02-26T19:34:55;70.78;;;33.17;;
78989;SDS011;68390;52.130;21.218;2024-02-26T19:37:20;75.13;;;32.60;;
78989;SDS011;68390;52.130;21.218;2024-02-26T19:39:46;56.47;;;29.60;;
78989;SDS011;68390;52.130;21.218;2024-02-26T19:42:11;48.30;;;25.10;;
78989;SDS011;68390;52.130;21.218;2024-02-26T19:44:37;52.00;;;28.20;;
78989;SDS011;68390;52.130;21.218;2024-02-26T19:47:03;45.45;;;25.42;;
78989;SDS011;68390;52.130;21.218;2024-02-26T19:49:29;43.72;;;24.95;;
78989;SDS011;68390;52.130;21.218;2024-02-26T19:51:54;53.70;;;27.45;;
78989;SDS011;68390;52.130;21.218;2024-02-26T19:54:20;55.28;;;27.98;;
78989;SDS011;68390;52.130;21.218;2024-02-26T19:56:45;70.90;;;36.45;;
78989;SDS011;68390;52.130;21.218;2024-02-26T19:59:12;49.92;;;27.52;;
78989;SDS011;68390;52.130;21.218;2024-02-26T20:01:41;53.00;;;28.65;;
78989;SDS011;68390;52.130;21.218;2024-02-26T20:04:09;54.95;;;30.52;;
78989;SDS011;68390;52.130;21.218;2024-02-26T20:06:40;53.28;;;30.23;;
78989;SDS011;68390;52.130;21.218;2024-02-26T20:09:06;52.97;;;29.08;;
78989;SDS011;68390;52.130;21.218;2024-02-26T20:11:32;52.88;;;29.25;;
78989;SDS011;68390;52.130;21.218;2024-02-26T20:14:02;54.22;;;28.88;;
78989;SDS011;68390;52.130;21.218;2024-02-26T20:16:27;46.63;;;26.50;;
78989;SDS011;68390;52.130;21.218;2024-02-26T20:18:53;47.78;;;28.00;;
78989;SDS011;68390;52.130;21.218;2024-02-26T20:21:19;46.10;;;25.77;;
78989;SDS011;68390;52.130;21.218;2024-02-26T20:23:45;49.97;;;28.55;;
78989;SDS011;68390;52.130;21.218;2024-02-26T20:26:11;52.08;;;27.15;;
78989;SDS011;68390;52.130;21.218;2024-02-26T20:28:36;53.20;;;30.15;;
78989;SDS011;68390;52.130;21.218;2024-02-26T20:31:03;53.35;;;28.83;;
78989;SDS011;68390;52.130;21.218;2024-02-26T20:33:29;43.45;;;24.23;;
78989;SDS011;68390;52.130;21.218;2024-02-26T20:35:55;46.67;;;26.02;;
78989;SDS011;68390;52.130;21.218;2024-02-26T20:38:21;42.67;;;23.83;;
78989;SDS011;68390;52.130;21.218;2024-02-26T20:40:46;49.05;;;27.10;;
78989;SDS011;68390;52.130;21.218;2024-02-26T20:43:12;47.78;;;25.52;;
78989;SDS011;68390;52.130;21.218;2024-02-26T20:45:39;47.33;;;26.52;;
78989;SDS011;68390;52.130;21.218;2024-02-26T20:48:05;48.03;;;26.25;;
78989;SDS011;68390;52.130;21.218;2024-02-26T20:50:31;45.75;;;26.25;;
78989;SDS011;68390;52.130;21.218;2024-02-26T20:52:57;50.05;;;26.75;;
78989;SDS011;68390;52.130;21.218;2024-02-26T20:55:23;47.35;;;27.08;;
78989;SDS011;68390;52.130;21.218;2024-02-26T20:57:49;45.55;;;26.35;;
78989;SDS011;68390;52.130;21.218;2024-02-26T21:00:14;49.50;;;26.27;;
78989;SDS011;68390;52.130;21.218;2024-02-26T21:02:40;45.25;;;26.35;;
78989;SDS011;68390;52.130;21.218;2024-02-26T21:05:05;42.17;;;24.25;;
78989;SDS011;68390;52.130;21.218;2024-02-26T21:07:32;47.83;;;26.45;;
78989;SDS011;68390;52.130;21.218;2024-02-26T21:09:57;40.10;;;23.60;;
78989;SDS011;68390;52.130;21.218;2024-02-26T21:12:23;42.38;;;24.55;;
78989;SDS011;68390;52.130;21.218;2024-02-26T21:14:49;44.90;;;25.20;;
78989;SDS011;68390;52.130;21.218;2024-02-26T21:17:14;53.28;;;28.23;;
78989;SDS011;68390;52.130;21.218;2024-02-26T21:19:40;48.78;;;27.13;;
78989;SDS011;68390;52.130;21.218;2024-02-26T21:22:05;53.15;;;29.73;;
78989;SDS011;68390;52.130;21.218;2024-02-26T21:24:31;46.10;;;26.90;;
78989;SDS011;68390;52.130;21.218;2024-02-26T21:26:56;51.90;;;28.13;;
78989;SDS011;68390;52.130;21.218;2024-02-26T21:29:22;51.33;;;28.05;;
78989;SDS011;68390;52.130;21.218;2024-02-26T21:31:47;52.47;;;29.13;;
78989;SDS011;68390;52.130;21.218;2024-02-26T21:34:13;47.33;;;26.30;;
78989;SDS011;68390;52.130;21.218;2024-02-26T21:36:39;45.83;;;24.02;;
78989;SDS011;68390;52.130;21.218;2024-02-26T21:39:04;49.40;;;28.00;;
78989;SDS011;68390;52.130;21.218;2024-02-26T21:41:30;45.38;;;26.45;;
78989;SDS011;68390;52.130;21.218;2024-02-26T21:43:56;51.13;;;25.35;;
78989;SDS011;68390;52.130;21.218;2024-02-26T21:46:23;50.05;;;27.75;;
78989;SDS011;68390;52.130;21.218;2024-02-26T21:48:49;58.03;;;29.27;;
78989;SDS011;68390;52.130;21.218;2024-02-26T21:51:14;61.00;;;29.80;;
78989;SDS011;68390;52.130;21.218;2024-02-26T21:53:40;52.90;;;28.73;;
78989;SDS011;68390;52.130;21.218;2024-02-26T21:56:06;50.70;;;26.40;;